Melrose, NY (12121)

6:13 AM EDT on September 30, 2014 (GMT -0400)
Bald Mt Site | Change Station
CLOSE
Current Station
Personal Weather Station
Location: Troy, NY
Elevation: 963 ft
Nearby Weather Stations

Elev 963 ft 42.79 °N, 73.63 °W | Updated 5 seconds ago

Partly Cloudy
Partly Cloudy
60.0 °F
Feels Like 60.0 °F
N
0.0
Wind Variable Wind from WSW
Gusts 0.0 mph

Today
High -- | Low -- °F
--% Chance of Precip.
Yesterday
High -- | Low -- °F
Precip. -- in
6:50 AM 6:37 PM
Waxing Crescent, 35% visible
Pressure 29.96 in
Visibility 5.0 miles
Clouds Scattered Clouds 200 ft
Scattered Clouds 2500 ft
Dew Point 59 °F
Humidity 95%
Rainfall 0.00 in
Snow Depth Not available.
UV 0 out of 12
Pollen 1.90 out of 12
PM2.5 Moderate
Flu Activity Not available.
METAR KALB 300951Z 35003KT 5SM BCFG BR SCT002 SCT025 13/12 A2996 RMK AO2 SLP144 BCFG NW-N MIFG SW-W T01280122

More Conditions Fewer Conditions

Pressure 29.96 in
Visibility 5.0 miles
Clouds Scattered Clouds 200 ft
Scattered Clouds 2500 ft
Dew Point 59 °F
Humidity 95%
Rainfall 0.00 in
Snow Depth Not available.
UV 0 out of 12
Pollen 1.90 out of 12
PM2.5 Moderate
Flu Activity Not available.
METAR KALB 300951Z 35003KT 5SM BCFG BR SCT002 SCT025 13/12 A2996 RMK AO2 SLP144 BCFG NW-N MIFG SW-W T01280122

More Conditions Fewer Conditions

10-Day Weather Forecast

Almanac

Astronomy

Sep. 30, 2014 Rise Set
Actual Time 6:50 AM EDT 6:37 PM EDT
Civil Twilight 6:22 AM EDT 7:05 PM EDT
Nautical Twilight 5:49 AM EDT 7:38 PM EDT
Astronomical Twilight 5:16 AM EDT 8:11 PM EDT
Moon 1:02 PM EDT 10:58 PM EDT
Length of Visible Light 12h 43m
Length of Day
11h 47m
Tomorrow will be 2m 53s shorter.
Waxing Crescent, 35% of the Moon is Illuminated
Today
Waxing Crescent
Oct 1
First Quarter
Oct 8
Full
Oct 15
Last Quarter
Oct 23
New

Today's Extremes

State Highs State Lows

Community

WunderPhotos

Upload Photos

1,757,608 photos uploaded!

Nearby

Air Quality

  Air Quality AQ Index Pollutant
Yesterday Moderate
PM2.5
Current Moderate
PM2.5
Tuesday Moderate
PM2.5
Tuesday Good
OZONE

Snow Depth

Station Depth Elevation
No new snow has been reported.

Earthquake Activity

City Distance Mag. Time & Date
No recent earthquake activity has been reported nearby.
Minimum magnitude displayed is 2.5.

Coastal Water Temperatures

Place Temperature
No Stations Reporting

Nearby Weather Stations